createdAt,value
2019-03-21T00:04:12.037Z,9.61
2019-03-21T00:09:16.255Z,9.69
2019-03-21T00:14:22.587Z,9.48
2019-03-21T00:19:25.157Z,9.54
2019-03-21T00:24:27.963Z,9.40
2019-03-21T00:29:33.321Z,9.28
2019-03-21T00:34:40.712Z,9.23
2019-03-21T00:39:43.251Z,9.31
2019-03-21T00:44:48.172Z,9.05
2019-03-21T00:49:50.727Z,9.20
2019-03-21T00:54:53.326Z,8.99
2019-03-21T00:59:56.961Z,9.12
2019-03-21T01:04:59.849Z,9.19
2019-03-21T01:10:02.442Z,8.87
2019-03-21T01:15:06.121Z,9.09
2019-03-21T01:20:10.899Z,9.22
2019-03-21T01:25:17.898Z,9.18
2019-03-21T01:30:20.499Z,8.85
2019-03-21T01:35:25.455Z,9.13
2019-03-21T01:40:28.709Z,9.04
2019-03-21T01:45:34.256Z,8.88
2019-03-21T01:50:37.098Z,8.93
2019-03-21T01:55:39.853Z,8.84
2019-03-21T02:00:45.457Z,8.79
2019-03-21T02:05:50.248Z,9.06
2019-03-21T02:10:55.762Z,9.20
2019-03-21T02:16:01.430Z,9.22
2019-03-21T02:21:03.999Z,9.49
2019-03-21T02:26:09.604Z,9.68
2019-03-21T02:31:12.177Z,9.88
2019-03-21T02:36:14.846Z,10.07
2019-03-21T02:41:17.399Z,10.04
2019-03-21T02:46:20.280Z,10.14
2019-03-21T02:51:22.834Z,9.91
2019-03-21T02:56:25.817Z,9.88
2019-03-21T03:01:28.375Z,9.99
2019-03-21T03:06:31.250Z,10.47
2019-03-21T03:11:35.215Z,10.56
2019-03-21T03:16:38.248Z,10.20
2019-03-21T03:21:40.851Z,10.18
2019-03-21T03:26:45.069Z,10.10
2019-03-21T03:31:47.739Z,9.94
2019-03-21T03:36:50.619Z,9.73
2019-03-21T03:41:53.159Z,9.29
2019-03-21T03:46:56.899Z,9.43
2019-03-21T03:51:59.609Z,9.38
2019-03-21T03:57:03.925Z,9.33
2019-03-21T04:02:06.575Z,8.96
2019-03-21T04:07:09.466Z,9.13
2019-03-21T04:12:12.047Z,8.96
2019-03-21T04:17:14.652Z,8.81
2019-03-21T04:22:18.390Z,8.99
2019-03-21T04:27:21.150Z,8.94
2019-03-21T04:32:26.195Z,8.84
2019-03-21T04:37:29.142Z,9.14
2019-03-21T04:42:31.743Z,8.78
2019-03-21T04:47:34.825Z,8.69
2019-03-21T04:52:37.466Z,8.74
2019-03-21T04:57:40.321Z,8.68
2019-03-21T05:02:43.440Z,8.91
2019-03-21T05:07:46.064Z,9.34
2019-03-21T05:12:49.884Z,9.16
2019-03-21T05:17:53.924Z,9.82
2019-03-21T05:22:59.667Z,9.96
2019-03-21T05:28:02.192Z,10.28
2019-03-21T05:33:06.513Z,10.11
2019-03-21T05:38:10.916Z,10.47
2019-03-21T05:43:19.378Z,10.52
2019-03-21T05:48:23.735Z,10.66
2019-03-21T05:53:27.466Z,10.62
2019-03-21T05:58:33.109Z,10.72
2019-03-21T06:03:45.194Z,11.03
2019-03-21T06:08:47.868Z,10.93
2019-03-21T06:13:53.467Z,11.02
2019-03-21T06:19:17.796Z,11.26
2019-03-21T06:25:00.841Z,11.16
2019-03-21T06:30:06.951Z,11.25
2019-03-21T06:35:22.230Z,11.67
2019-03-21T06:40:26.228Z,11.69
2019-03-21T06:45:32.826Z,11.71
2019-03-21T06:50:35.423Z,11.82
2019-03-21T06:55:40.959Z,11.91
2019-03-21T07:00:43.538Z,11.94
2019-03-21T07:05:49.604Z,12.19
2019-03-21T07:10:52.135Z,12.04
2019-03-21T07:15:56.616Z,12.37
2019-03-21T07:21:03.829Z,12.34
2019-03-21T07:26:06.870Z,12.37
2019-03-21T07:31:12.165Z,12.26
2019-03-21T07:36:20.925Z,12.35
2019-03-21T07:41:26.497Z,12.30
2019-03-21T07:46:29.117Z,12.29
2019-03-21T07:51:34.614Z,12.34
2019-03-21T07:56:42.444Z,12.41
2019-03-21T08:01:48.002Z,12.65
2019-03-21T08:06:53.916Z,12.68
2019-03-21T08:11:56.466Z,12.95
2019-03-21T08:16:59.229Z,13.08
2019-03-21T08:22:01.808Z,13.32
2019-03-21T08:27:04.703Z,13.09
2019-03-21T08:32:07.310Z,13.16
2019-03-21T08:37:10.129Z,13.15
2019-03-21T08:42:14.449Z,12.88
2019-03-21T08:47:17.160Z,12.79
2019-03-21T08:52:19.780Z,12.84
2019-03-21T08:57:22.655Z,13.03
2019-03-21T09:02:25.227Z,13.00
2019-03-21T09:07:29.578Z,13.15
2019-03-21T09:12:32.307Z,13.22
2019-03-21T09:17:35.985Z,13.47
2019-03-21T09:22:38.541Z,13.61
2019-03-21T09:27:46.263Z,13.65
2019-03-21T09:32:48.842Z,14.01
2019-03-21T09:37:52.649Z,13.86
2019-03-21T09:42:55.227Z,13.72
2019-03-21T09:47:57.912Z,13.33
2019-03-21T09:53:00.706Z,13.72
2019-03-21T09:58:05.782Z,14.31
2019-03-21T10:03:10.995Z,14.57
2019-03-21T10:08:13.609Z,14.82
2019-03-21T10:13:16.358Z,14.82
2019-03-21T10:18:18.925Z,15.03
2019-03-21T10:23:25.040Z,15.08
2019-03-21T10:28:29.390Z,14.97
2019-03-21T10:33:31.993Z,14.80
2019-03-21T10:38:34.650Z,15.03
2019-03-21T10:43:37.451Z,15.04
2019-03-21T10:48:40.003Z,15.21
2019-03-21T10:53:45.221Z,15.51
2019-03-21T10:58:49.183Z,15.58
2019-03-21T11:03:51.840Z,15.51
2019-03-21T11:08:54.404Z,15.17
2019-03-21T11:13:57.234Z,15.28
2019-03-21T11:18:59.776Z,15.72
2019-03-21T11:24:02.660Z,15.03
2019-03-21T11:29:05.256Z,14.47
2019-03-21T11:34:07.884Z,14.66
2019-03-21T11:39:12.975Z,14.73
2019-03-21T11:44:18.789Z,14.99
2019-03-21T11:49:24.151Z,15.35
2019-03-21T11:54:28.789Z,14.94
2019-03-21T11:59:46.132Z,15.09
2019-03-21T12:04:36.948Z,15.28
2019-03-21T12:09:39.482Z,15.36
2019-03-21T12:14:46.577Z,15.01
2019-03-21T12:19:49.172Z,15.42
2019-03-21T12:24:53.926Z,15.17
2019-03-21T12:29:56.483Z,15.20
2019-03-21T12:35:02.125Z,15.33
2019-03-21T12:40:05.824Z,16.34
2019-03-21T12:45:10.500Z,15.90
2019-03-21T12:50:16.087Z,15.76
2019-03-21T12:55:19.700Z,15.57
2019-03-21T13:00:31.602Z,15.82
2019-03-21T13:05:37.358Z,16.43
2019-03-21T13:10:39.999Z,15.92
2019-03-21T13:15:45.999Z,15.53
2019-03-21T13:20:50.671Z,15.72
2019-03-21T13:25:56.663Z,15.89
2019-03-21T13:30:59.336Z,15.92
2019-03-21T13:36:04.780Z,15.56
2019-03-21T13:41:07.362Z,15.51
2019-03-21T13:46:11.918Z,15.73
2019-03-21T13:51:14.480Z,15.62
2019-03-21T13:56:18.378Z,15.40
2019-03-21T14:01:20.971Z,15.90
2019-03-21T14:06:23.596Z,15.65
2019-03-21T14:11:26.340Z,14.82
2019-03-21T14:16:29.108Z,15.34
2019-03-21T14:21:31.706Z,15.32
2019-03-21T14:26:37.091Z,15.66
2019-03-21T14:31:39.715Z,15.25
2019-03-21T14:36:42.807Z,15.38
2019-03-21T14:41:45.442Z,15.66
2019-03-21T14:46:48.092Z,15.55
2019-03-21T14:51:50.925Z,15.27
2019-03-21T14:56:53.504Z,14.93
2019-03-21T15:01:56.352Z,14.87
2019-03-21T15:07:04.244Z,14.99
2019-03-21T15:12:10.933Z,15.16
2019-03-21T15:17:15.910Z,15.18
2019-03-21T15:22:18.851Z,15.19
2019-03-21T15:27:22.965Z,14.75
2019-03-21T15:32:27.422Z,14.86
2019-03-21T15:37:30.027Z,15.08
2019-03-21T15:42:32.959Z,14.87
2019-03-21T15:47:35.665Z,14.69
2019-03-21T15:52:42.184Z,14.91
2019-03-21T15:57:44.985Z,14.66
2019-03-21T16:02:47.728Z,14.58
2019-03-21T16:07:50.272Z,14.53
2019-03-21T16:12:52.887Z,14.37
2019-03-21T16:17:55.788Z,14.10
2019-03-21T16:22:58.664Z,14.11
2019-03-21T16:28:06.493Z,13.93
2019-03-21T16:33:14.739Z,14.00
2019-03-21T16:38:20.572Z,14.19
2019-03-21T16:43:25.748Z,14.04
2019-03-21T16:48:28.479Z,14.04
2019-03-21T16:53:31.069Z,13.83
2019-03-21T16:58:38.211Z,13.77
2019-03-21T17:03:42.283Z,13.77
2019-03-21T17:08:47.164Z,13.69
2019-03-21T17:13:49.738Z,13.72
2019-03-21T17:18:55.421Z,13.27
2019-03-21T17:24:00.529Z,13.27
2019-03-21T17:29:03.376Z,13.41
2019-03-21T17:34:05.921Z,13.27
2019-03-21T17:39:09.151Z,13.26
2019-03-21T17:44:17.741Z,13.32
2019-03-21T17:49:20.407Z,12.80
2019-03-21T17:54:24.534Z,12.74
2019-03-21T17:59:27.202Z,12.71
2019-03-21T18:04:29.831Z,12.75
2019-03-21T18:09:32.407Z,12.59
2019-03-21T18:14:35.005Z,12.19
2019-03-21T18:19:38.097Z,12.19
2019-03-21T18:24:53.033Z,12.61
2019-03-21T18:29:45.559Z,12.62
2019-03-21T18:34:48.088Z,12.26
2019-03-21T18:39:50.760Z,12.17
2019-03-21T18:44:54.581Z,12.62
2019-03-21T18:50:01.631Z,12.33
2019-03-21T18:55:06.493Z,12.20
2019-03-21T19:00:10.379Z,12.16
2019-03-21T19:05:13.416Z,12.21
2019-03-21T19:10:16.857Z,12.24
2019-03-21T19:15:19.374Z,12.00
2019-03-21T19:20:21.952Z,11.98
2019-03-21T19:25:24.503Z,11.95
2019-03-21T19:30:29.765Z,11.71
2019-03-21T19:35:32.317Z,11.67
2019-03-21T19:40:36.270Z,11.73
2019-03-21T19:45:38.809Z,11.74
2019-03-21T19:50:41.383Z,11.55
2019-03-21T19:55:43.913Z,11.87
2019-03-21T20:00:46.909Z,11.71
2019-03-21T20:05:59.915Z,11.73
2019-03-21T20:10:56.179Z,11.80
2019-03-21T20:15:58.779Z,11.84
2019-03-21T20:21:01.651Z,11.85
2019-03-21T20:26:04.325Z,11.80
2019-03-21T20:31:07.108Z,11.89
2019-03-21T20:36:09.742Z,11.61
2019-03-21T20:41:12.399Z,11.59
2019-03-21T20:46:16.858Z,11.29
2019-03-21T20:51:20.832Z,11.19
2019-03-21T20:56:23.371Z,11.11
2019-03-21T21:01:26.162Z,11.07
2019-03-21T21:06:33.762Z,10.89
2019-03-21T21:11:37.472Z,10.81
2019-03-21T21:16:40.028Z,10.66
2019-03-21T21:21:44.789Z,10.78
2019-03-21T21:26:47.444Z,10.56
2019-03-21T21:31:53.031Z,10.63
2019-03-21T21:36:55.767Z,10.59
2019-03-21T21:41:58.301Z,10.61
2019-03-21T21:47:00.875Z,10.55
2019-03-21T21:52:03.499Z,10.66
2019-03-21T21:57:06.024Z,10.31
2019-03-21T22:02:08.594Z,10.42
2019-03-21T22:07:11.548Z,10.25
2019-03-21T22:12:14.165Z,10.23
2019-03-21T22:17:16.733Z,10.26
2019-03-21T22:22:19.490Z,10.02
2019-03-21T22:27:22.251Z,10.28
2019-03-21T22:32:24.873Z,10.25
2019-03-21T22:37:30.259Z,9.95
2019-03-21T22:42:33.430Z,10.10
2019-03-21T22:47:36.083Z,10.11
2019-03-21T22:52:38.647Z,10.06
2019-03-21T22:57:41.567Z,10.00
2019-03-21T23:02:45.772Z,10.11
2019-03-21T23:07:48.551Z,9.97
2019-03-21T23:12:51.375Z,10.05
2019-03-21T23:17:54.047Z,9.82
2019-03-21T23:22:56.639Z,9.67
2019-03-21T23:27:59.318Z,9.49
2019-03-21T23:33:01.961Z,9.26
2019-03-21T23:38:04.500Z,9.21
2019-03-21T23:43:07.013Z,9.12
2019-03-21T23:48:17.575Z,9.16
2019-03-21T23:53:20.164Z,9.12
2019-03-21T23:58:22.732Z,8.91
